createdAt,value
2018-11-29T20:37:18.227Z,1004.17
2018-11-29T20:38:32.579Z,1004.2
2018-11-29T20:39:46.710Z,1004.22
2018-11-29T20:41:01.434Z,1004.19
2018-11-29T20:42:15.777Z,1004.19
2018-11-29T20:43:30.371Z,1004.16
2018-11-29T20:44:45.158Z,1004.14
2018-11-29T20:45:59.554Z,1004.1
2018-11-29T20:47:14.524Z,1004.14
2018-11-29T20:48:29.473Z,1004.08
2018-11-29T20:49:45.181Z,1004.08
2018-11-29T20:50:59.844Z,1004.05
2018-11-29T20:52:14.727Z,1004.08
2018-11-29T20:53:29.292Z,1004.08
2018-11-29T20:54:43.860Z,1004.09
2018-11-29T20:55:58.138Z,1004.11
2018-11-29T20:57:12.807Z,1004.1
2018-11-29T20:58:26.684Z,1004.08
2018-11-29T20:59:41.553Z,1004.08
2018-11-29T21:00:56.144Z,1004.06
2018-11-29T21:02:10.716Z,1004.01
2018-11-29T21:03:25.859Z,1004
2018-11-29T21:04:43.048Z,1004.07
2018-11-29T21:05:57.606Z,1004.05
2018-11-29T21:07:12.140Z,1004.05
2018-11-29T21:08:26.583Z,1004.07
2018-11-29T21:09:41.876Z,1004.12
2018-11-29T21:10:57.422Z,1004.1
2018-11-29T21:12:12.301Z,1004.07
2018-11-29T21:13:26.561Z,1004.05
2018-11-29T21:14:56.990Z,1004.05
2018-11-29T21:16:11.195Z,1004.09
2018-11-29T21:17:24.848Z,1004.09
2018-11-29T21:18:38.841Z,1004.02
2018-11-29T21:21:22.724Z,1004.03
2018-11-29T21:22:38.796Z,1004.02
2018-11-29T21:23:53.253Z,1004.06
2018-11-29T21:25:07.787Z,1004
2018-11-29T21:26:22.458Z,1003.96
2018-11-29T21:27:37.385Z,1004
2018-11-29T21:28:52.644Z,1003.93
2018-11-29T21:30:22.097Z,1003.95
2018-11-29T21:31:37.071Z,1003.97
2018-11-29T21:32:51.270Z,1003.95
2018-11-29T21:34:06.010Z,1003.93
2018-11-29T21:35:21.095Z,1003.97
2018-11-29T21:36:35.702Z,1003.96
2018-11-29T21:37:50.057Z,1003.92
2018-11-29T21:39:04.815Z,1003.93
2018-11-29T21:40:19.137Z,1003.87
2018-11-29T21:41:33.174Z,1003.89
2018-11-29T21:42:47.659Z,1003.83
2018-11-29T21:44:01.823Z,1003.76
2018-11-29T21:45:31.007Z,1003.71
2018-11-29T21:46:45.881Z,1003.66
2018-11-29T21:47:59.866Z,1003.77
2018-11-29T21:49:13.689Z,1003.78
2018-11-29T21:50:27.195Z,1003.72
2018-11-29T21:51:41.293Z,1003.72
2018-11-29T21:52:55.835Z,1003.61
2018-11-29T21:54:10.133Z,1003.65
2018-11-29T21:55:24.364Z,1003.68
2018-11-29T21:56:39.455Z,1003.61
2018-11-29T21:57:53.854Z,1003.63
2018-11-29T21:59:08.770Z,1003.69
2018-11-29T22:00:23.706Z,1003.72
2018-11-29T22:01:37.616Z,1003.67
2018-11-29T22:02:52.297Z,1003.6
2018-11-29T22:04:06.593Z,1003.63
2018-11-29T22:05:21.099Z,1003.56
2018-11-29T22:06:35.213Z,1003.51
2018-11-29T22:07:50.733Z,1003.52
2018-11-29T22:09:05.209Z,1003.48
2018-11-29T22:10:19.883Z,1003.42
2018-11-29T22:11:34.732Z,1003.45
2018-11-29T22:12:51.577Z,1003.49
2018-11-29T22:14:06.253Z,1003.49
2018-11-29T22:15:20.950Z,1003.56
2018-11-29T22:16:36.442Z,1003.58
2018-11-29T22:17:51.119Z,1003.64
2018-11-29T22:19:11.050Z,1003.7
2018-11-29T22:20:24.939Z,1003.73
2018-11-29T22:21:38.818Z,1003.74
2018-11-29T22:22:53.405Z,1003.7
2018-11-29T22:24:07.970Z,1003.67
2018-11-29T22:25:22.683Z,1003.64
2018-11-29T22:26:37.222Z,1003.67
2018-11-29T22:27:51.379Z,1003.63
2018-11-29T22:29:05.757Z,1003.57
2018-11-29T22:30:19.904Z,1003.53
2018-11-29T22:31:34.226Z,1003.49
2018-11-29T22:32:48.580Z,1003.51
2018-11-29T22:34:02.700Z,1003.53
2018-11-29T22:35:16.705Z,1003.57
2018-11-29T22:36:31.558Z,1003.57
2018-11-29T22:37:46.070Z,1003.56
2018-11-29T22:38:59.926Z,1003.56
2018-11-29T22:40:14.494Z,1003.54
2018-11-29T22:41:29.090Z,1003.53
2018-11-29T22:42:44.092Z,1003.47
2018-11-29T22:43:58.623Z,1003.46
2018-11-29T22:45:12.972Z,1003.45
2018-11-29T22:46:28.015Z,1003.38
2018-11-29T22:47:42.104Z,1003.4
2018-11-29T22:48:56.721Z,1003.4
2018-11-29T22:50:11.337Z,1003.4
2018-11-29T22:51:40.504Z,1003.38
2018-11-29T22:52:54.822Z,1003.42
2018-11-29T22:54:09.594Z,1003.39
2018-11-29T22:55:24.084Z,1003.36
2018-11-29T22:56:38.129Z,1003.4
2018-11-29T22:57:52.472Z,1003.42
2018-11-29T22:59:07.270Z,1003.43
2018-11-29T23:00:21.753Z,1003.41
2018-11-29T23:01:35.851Z,1003.45
2018-11-29T23:02:50.567Z,1003.56
2018-11-29T23:04:04.816Z,1003.52
2018-11-29T23:05:18.693Z,1003.47
2018-11-29T23:06:33.420Z,1003.47
2018-11-29T23:07:47.252Z,1003.42
2018-11-29T23:09:01.445Z,1003.47
2018-11-29T23:10:15.943Z,1003.49
2018-11-29T23:11:30.721Z,1003.5
2018-11-29T23:12:45.490Z,1003.5
2018-11-29T23:13:59.661Z,1003.47
2018-11-29T23:15:13.960Z,1003.52
2018-11-29T23:16:28.329Z,1003.55
2018-11-29T23:17:43.096Z,1003.58
2018-11-29T23:18:57.836Z,1003.55
2018-11-29T23:20:12.045Z,1003.58
2018-11-29T23:21:26.207Z,1003.61
2018-11-29T23:22:40.256Z,1003.63
2018-11-29T23:23:54.333Z,1003.63
2018-11-29T23:25:08.818Z,1003.65
2018-11-29T23:26:23.110Z,1003.64
2018-11-29T23:27:37.719Z,1003.62
2018-11-29T23:28:51.994Z,1003.65
2018-11-29T23:30:06.527Z,1003.62
2018-11-29T23:31:21.078Z,1003.67
2018-11-29T23:32:35.605Z,1003.65
2018-11-29T23:33:49.906Z,1003.66
2018-11-29T23:35:04.496Z,1003.65
2018-11-29T23:36:18.670Z,1003.65
2018-11-29T23:37:33.468Z,1003.64
2018-11-29T23:38:47.542Z,1003.65
2018-11-29T23:40:01.615Z,1003.67
2018-11-29T23:41:15.709Z,1003.67
2018-11-29T23:42:30.215Z,1003.67
2018-11-29T23:43:45.440Z,1003.7
2018-11-29T23:44:59.946Z,1003.64
2018-11-29T23:46:14.316Z,1003.7
2018-11-29T23:47:28.372Z,1003.65
2018-11-29T23:48:42.208Z,1003.62
2018-11-29T23:49:56.985Z,1003.64
2018-11-29T23:51:11.506Z,1003.6
2018-11-29T23:52:26.193Z,1003.62
2018-11-29T23:53:40.128Z,1003.62
2018-11-29T23:54:54.377Z,1003.62
2018-11-29T23:56:09.121Z,1003.62
2018-11-29T23:57:23.594Z,1003.61
2018-11-29T23:58:37.677Z,1003.61
2018-11-29T23:59:51.497Z,1003.62
